createdAt,value
2019-03-06T00:02:09.235Z,13.93
2019-03-06T00:04:38.326Z,16.10
2019-03-06T00:07:08.575Z,11.80
2019-03-06T00:09:37.820Z,15.73
2019-03-06T00:12:06.754Z,15.03
2019-03-06T00:14:37.005Z,15.43
2019-03-06T00:17:07.922Z,14.73
2019-03-06T00:19:37.039Z,19.93
2019-03-06T00:22:07.586Z,17.17
2019-03-06T00:24:38.371Z,19.80
2019-03-06T00:27:07.815Z,15.77
2019-03-06T00:29:37.150Z,20.90
2019-03-06T00:32:06.249Z,14.43
2019-03-06T00:34:35.789Z,18.07
2019-03-06T00:37:04.823Z,14.63
2019-03-06T00:39:42.854Z,17.73
2019-03-06T00:42:11.888Z,18.33
2019-03-06T00:44:43.769Z,17.90
2019-03-06T00:47:12.602Z,14.97
2019-03-06T00:49:41.420Z,17.20
2019-03-06T00:52:10.392Z,15.77
2019-03-06T00:54:39.612Z,18.53
2019-03-06T00:57:08.786Z,18.17
2019-03-06T00:59:37.644Z,18.60
2019-03-06T01:02:09.243Z,19.70
2019-03-06T01:04:38.283Z,16.77
2019-03-06T01:07:08.030Z,23.27
2019-03-06T01:09:37.437Z,18.50
2019-03-06T01:12:09.314Z,19.30
2019-03-06T01:14:38.221Z,19.23
2019-03-06T01:17:07.177Z,22.17
2019-03-06T01:19:37.195Z,20.60
2019-03-06T01:22:06.258Z,16.87
2019-03-06T01:24:35.935Z,20.03
2019-03-06T01:27:05.825Z,19.97
2019-03-06T01:29:34.658Z,20.70
2019-03-06T01:32:03.690Z,19.20
2019-03-06T01:34:47.300Z,23.23
2019-03-06T01:40:24.792Z,20.60
2019-03-06T01:42:58.642Z,23.30
2019-03-06T01:45:27.985Z,22.27
2019-03-06T01:47:57.257Z,21.63
2019-03-06T01:50:26.155Z,22.13
2019-03-06T01:52:55.119Z,26.67
2019-03-06T01:55:24.273Z,27.13
2019-03-06T01:57:53.933Z,24.40
2019-03-06T02:00:23.005Z,23.93
2019-03-06T02:02:51.885Z,26.90
2019-03-06T02:05:22.285Z,30.03
2019-03-06T02:07:51.263Z,30.77
2019-03-06T02:10:20.646Z,32.50
2019-03-06T02:12:49.923Z,32.53
2019-03-06T02:15:19.860Z,32.07
2019-03-06T02:17:49.581Z,30.33
2019-03-06T02:20:19.244Z,32.27
2019-03-06T02:22:48.122Z,28.97
2019-03-06T02:25:16.967Z,30.83
2019-03-06T02:27:46.150Z,31.10
2019-03-06T02:30:17.351Z,29.87
2019-03-06T02:32:46.595Z,31.30
2019-03-06T02:35:15.811Z,29.93
2019-03-06T02:37:44.895Z,27.43
2019-03-06T02:40:14.378Z,28.40
2019-03-06T02:42:43.323Z,25.43
2019-03-06T02:45:13.828Z,26.17
2019-03-06T02:47:43.083Z,24.87
2019-03-06T02:50:12.815Z,25.90
2019-03-06T02:52:42.579Z,23.07
2019-03-06T02:55:16.393Z,23.57
2019-03-06T02:57:56.883Z,25.63
2019-03-06T03:00:43.704Z,23.07
2019-03-06T03:03:27.989Z,23.57
2019-03-06T03:08:37.987Z,24.37
2019-03-06T03:11:07.208Z,24.03
2019-03-06T03:13:38.203Z,24.43
2019-03-06T03:16:07.156Z,24.47
2019-03-06T03:18:36.414Z,28.80
2019-03-06T03:21:05.699Z,25.60
2019-03-06T03:23:34.631Z,25.37
2019-03-06T03:26:03.670Z,24.70
2019-03-06T03:28:32.925Z,28.53
2019-03-06T03:31:02.964Z,22.83
2019-03-06T03:33:32.326Z,25.60
2019-03-06T03:36:01.661Z,24.93
2019-03-06T03:38:30.771Z,26.90
2019-03-06T03:40:59.683Z,23.73
2019-03-06T03:43:28.813Z,25.27
2019-03-06T03:45:58.168Z,24.93
2019-03-06T03:48:27.093Z,24.87
2019-03-06T03:50:56.839Z,23.40
2019-03-06T03:53:28.364Z,24.60
2019-03-06T03:55:57.236Z,24.70
2019-03-06T03:58:26.155Z,22.53
2019-03-06T04:00:57.342Z,26.63
2019-03-06T04:03:26.300Z,23.90
2019-03-06T04:05:55.266Z,26.53
2019-03-06T04:08:24.168Z,22.57
2019-03-06T04:10:53.117Z,21.90
2019-03-06T04:13:22.395Z,22.87
2019-03-06T04:15:51.630Z,21.17
2019-03-06T04:18:20.904Z,22.70
2019-03-06T04:20:49.850Z,18.47
2019-03-06T04:23:20.804Z,23.93
2019-03-06T04:25:51.855Z,19.53
2019-03-06T04:28:21.009Z,21.27
2019-03-06T04:30:53.056Z,18.83
2019-03-06T04:33:21.960Z,16.50
2019-03-06T04:35:51.538Z,21.20
2019-03-06T04:38:20.449Z,17.83
2019-03-06T04:40:52.650Z,19.37
2019-03-06T04:43:21.818Z,19.00
2019-03-06T04:45:50.815Z,14.60
2019-03-06T04:48:23.410Z,19.47
2019-03-06T04:50:52.440Z,20.77
2019-03-06T04:53:21.418Z,20.00
2019-03-06T04:55:53.339Z,16.70
2019-03-06T04:58:23.444Z,18.40
2019-03-06T05:00:52.257Z,15.97
2019-03-06T05:03:21.151Z,15.40
2019-03-06T05:05:50.075Z,16.47
2019-03-06T05:08:19.343Z,15.97
2019-03-06T05:10:49.729Z,14.90
2019-03-06T05:13:18.609Z,14.20
2019-03-06T05:15:47.505Z,13.97
2019-03-06T05:18:31.469Z,14.63
2019-03-06T05:21:00.453Z,12.90
2019-03-06T05:23:29.624Z,14.87
2019-03-06T05:25:58.629Z,15.77
2019-03-06T05:28:27.526Z,17.13
2019-03-06T05:30:56.334Z,11.97
2019-03-06T05:33:28.873Z,16.13
2019-03-06T05:36:33.831Z,12.23
2019-03-06T05:39:10.520Z,12.33
2019-03-06T05:41:39.920Z,12.20
2019-03-06T05:44:08.891Z,14.43
2019-03-06T05:46:38.239Z,12.70
2019-03-06T05:49:07.145Z,13.00
2019-03-06T05:51:36.062Z,11.73
2019-03-06T05:54:06.117Z,10.07
2019-03-06T05:56:36.719Z,11.70
2019-03-06T05:59:05.709Z,8.83
2019-03-06T06:01:38.069Z,9.70
2019-03-06T06:04:07.002Z,15.03
2019-03-06T06:06:36.501Z,11.77
2019-03-06T06:09:07.625Z,10.70
2019-03-06T06:11:36.868Z,12.33
2019-03-06T06:14:06.237Z,12.77
2019-03-06T06:16:35.115Z,12.53
2019-03-06T06:19:04.097Z,11.23
2019-03-06T06:21:50.150Z,11.27
2019-03-06T06:24:22.700Z,7.17
2019-03-06T06:26:51.646Z,10.97
2019-03-06T06:31:57.255Z,9.43
2019-03-06T06:34:27.147Z,12.47
2019-03-06T06:36:57.012Z,12.60
2019-03-06T06:39:25.846Z,10.00
2019-03-06T06:41:54.856Z,11.00
2019-03-06T06:44:26.896Z,6.77
2019-03-06T06:46:56.722Z,6.83
2019-03-06T06:49:25.646Z,7.40
2019-03-06T06:52:26.282Z,11.37
2019-03-06T06:55:36.676Z,6.97
2019-03-06T06:58:44.014Z,7.93
2019-03-06T07:01:42.131Z,6.93
2019-03-06T07:04:53.415Z,9.50
2019-03-06T07:07:37.148Z,7.77
2019-03-06T07:10:14.012Z,9.03
2019-03-06T07:13:11.679Z,6.50
2019-03-06T07:15:50.127Z,5.87
2019-03-06T07:18:25.215Z,6.50
2019-03-06T07:21:16.930Z,6.03
2019-03-06T07:24:11.334Z,6.57
2019-03-06T07:27:03.964Z,7.13
2019-03-06T07:29:43.364Z,6.73
2019-03-06T07:32:32.421Z,7.37
2019-03-06T07:35:56.851Z,7.83
2019-03-06T07:38:28.130Z,8.57
2019-03-06T07:41:35.287Z,5.50
2019-03-06T07:44:16.118Z,8.17
2019-03-06T07:47:04.521Z,5.43
2019-03-06T07:49:52.007Z,5.00
2019-03-06T07:52:40.011Z,5.00
2019-03-06T07:55:34.630Z,9.40
2019-03-06T07:58:39.749Z,7.37
2019-03-06T08:01:16.830Z,6.03
2019-03-06T08:03:53.019Z,9.47
2019-03-06T08:06:22.094Z,4.30
2019-03-06T08:08:51.842Z,6.27
2019-03-06T08:11:49.460Z,7.03
2019-03-06T08:14:46.284Z,5.10
2019-03-06T08:17:29.793Z,6.90
2019-03-06T08:20:20.198Z,5.73
2019-03-06T08:23:11.253Z,5.97
2019-03-06T08:25:46.287Z,6.77
2019-03-06T08:28:17.091Z,9.03
2019-03-06T08:30:50.166Z,5.23
2019-03-06T08:33:19.135Z,5.77
2019-03-06T08:35:48.270Z,5.53
2019-03-06T08:38:17.178Z,3.83
2019-03-06T08:40:46.198Z,4.53
2019-03-06T08:43:23.095Z,5.13
2019-03-06T08:46:01.589Z,6.27
2019-03-06T08:48:46.474Z,5.70
2019-03-06T08:51:31.815Z,7.43
2019-03-06T08:54:19.581Z,8.20
2019-03-06T08:56:59.799Z,4.97
2019-03-06T08:59:54.152Z,7.07
2019-03-06T09:02:43.929Z,5.27
2019-03-06T09:05:21.285Z,5.27
2019-03-06T09:08:22.739Z,6.47
2019-03-06T09:11:09.066Z,6.03
2019-03-06T09:13:57.114Z,6.23
2019-03-06T09:16:54.575Z,7.20
2019-03-06T09:19:37.758Z,7.17
2019-03-06T09:22:30.239Z,6.10
2019-03-06T09:25:07.416Z,5.23
2019-03-06T09:27:56.185Z,6.57
2019-03-06T09:30:29.919Z,4.80
2019-03-06T09:33:23.787Z,5.27
2019-03-06T09:36:19.027Z,5.83
2019-03-06T09:39:09.987Z,6.23
2019-03-06T09:41:55.033Z,5.37
2019-03-06T09:44:35.497Z,4.40
2019-03-06T09:47:33.576Z,7.17
2019-03-06T09:50:14.586Z,5.00
2019-03-06T09:53:05.464Z,6.57
2019-03-06T09:55:52.638Z,5.13
2019-03-06T09:58:34.007Z,4.90
2019-03-06T10:01:40.008Z,5.50
2019-03-06T10:04:34.416Z,4.90
2019-03-06T10:07:34.561Z,5.03
2019-03-06T10:10:22.587Z,5.23
2019-03-06T10:13:06.426Z,6.23
2019-03-06T10:15:42.690Z,7.37
2019-03-06T10:18:20.066Z,7.20
2019-03-06T10:20:48.984Z,4.80
2019-03-06T10:23:18.022Z,6.93
2019-03-06T10:25:47.430Z,7.67
2019-03-06T10:28:16.688Z,5.90
2019-03-06T10:30:45.779Z,5.07
2019-03-06T10:33:14.799Z,6.73
2019-03-06T10:35:47.677Z,6.47
2019-03-06T10:38:17.249Z,3.70
2019-03-06T10:40:46.476Z,5.60
2019-03-06T10:43:15.499Z,4.97
2019-03-06T10:45:44.581Z,6.03
2019-03-06T10:48:16.162Z,5.60
2019-03-06T10:50:45.121Z,5.53
2019-03-06T10:53:14.444Z,5.53
2019-03-06T10:55:43.417Z,6.30
2019-03-06T10:58:12.920Z,5.63
2019-03-06T11:00:51.433Z,9.33
2019-03-06T11:03:23.604Z,5.10
2019-03-06T11:05:53.056Z,5.80
2019-03-06T11:08:22.687Z,6.33
2019-03-06T11:10:51.798Z,6.67
2019-03-06T11:13:20.775Z,6.60
2019-03-06T11:15:55.757Z,7.00
2019-03-06T11:18:21.118Z,5.73
2019-03-06T11:20:50.199Z,7.53
2019-03-06T11:23:19.246Z,6.80
2019-03-06T11:25:54.450Z,7.33
2019-03-06T11:28:23.742Z,6.27
2019-03-06T11:30:54.246Z,6.70
2019-03-06T11:33:23.798Z,6.50
2019-03-06T11:35:54.377Z,5.60
2019-03-06T11:38:24.133Z,6.40
2019-03-06T11:40:53.190Z,5.60
2019-03-06T11:43:22.199Z,6.80
2019-03-06T11:45:53.814Z,4.80
2019-03-06T11:48:22.971Z,8.73
2019-03-06T11:50:52.591Z,7.63
2019-03-06T11:53:21.667Z,8.67
2019-03-06T11:55:50.682Z,7.20
2019-03-06T11:58:19.953Z,7.40
2019-03-06T12:00:49.348Z,7.87
2019-03-06T12:03:20.344Z,6.80
2019-03-06T12:05:50.119Z,6.07
2019-03-06T12:08:19.578Z,7.93
2019-03-06T12:10:49.315Z,7.13
2019-03-06T12:13:19.093Z,7.97
2019-03-06T12:15:49.205Z,7.63
2019-03-06T12:18:19.082Z,6.87
2019-03-06T12:20:48.236Z,5.97
2019-03-06T12:23:17.711Z,9.07
2019-03-06T12:25:47.597Z,8.73
2019-03-06T12:28:16.850Z,7.90
2019-03-06T12:30:49.080Z,6.03
2019-03-06T12:33:27.066Z,9.03
2019-03-06T12:35:56.054Z,8.90
2019-03-06T12:38:25.092Z,7.77
2019-03-06T12:40:54.068Z,6.53
2019-03-06T12:43:23.349Z,6.17
2019-03-06T12:49:08.595Z,8.73
2019-03-06T12:51:37.899Z,9.57
2019-03-06T12:54:09.653Z,7.47
2019-03-06T12:56:38.882Z,12.80
2019-03-06T12:59:12.289Z,8.77
2019-03-06T13:01:41.331Z,7.37
2019-03-06T13:04:10.254Z,14.33
2019-03-06T13:06:39.259Z,8.13
2019-03-06T13:09:16.661Z,8.17
2019-03-06T13:11:45.724Z,6.87
2019-03-06T13:14:15.527Z,6.90
2019-03-06T13:16:44.752Z,7.37
2019-03-06T13:19:14.245Z,9.90
2019-03-06T13:21:43.214Z,6.80
2019-03-06T13:24:13.029Z,7.13
2019-03-06T13:26:42.307Z,9.67
2019-03-06T13:29:11.591Z,7.00
2019-03-06T13:31:40.588Z,6.03
2019-03-06T13:34:39.625Z,5.63
2019-03-06T13:37:09.713Z,7.30
2019-03-06T13:39:39.967Z,6.60
2019-03-06T13:42:09.291Z,7.37
2019-03-06T13:44:41.145Z,8.10
2019-03-06T13:47:12.669Z,7.97
2019-03-06T13:49:43.811Z,8.23
2019-03-06T13:52:14.589Z,8.10
2019-03-06T13:54:43.706Z,11.60
2019-03-06T13:57:12.785Z,12.87
2019-03-06T13:59:45.242Z,9.17
2019-03-06T14:02:14.271Z,8.43
2019-03-06T14:04:43.622Z,5.80
2019-03-06T14:07:12.923Z,5.60
2019-03-06T14:09:41.981Z,6.47
2019-03-06T14:12:11.712Z,7.53
2019-03-06T14:17:17.120Z,9.83
2019-03-06T14:19:46.464Z,9.53
2019-03-06T14:22:16.654Z,9.90
2019-03-06T14:24:45.889Z,9.97
2019-03-06T14:27:15.489Z,6.43
2019-03-06T14:29:45.606Z,4.77
2019-03-06T14:32:15.246Z,8.33
2019-03-06T14:34:47.021Z,10.93
2019-03-06T14:37:16.408Z,8.80
2019-03-06T14:39:45.512Z,8.47
2019-03-06T14:42:14.905Z,10.03
2019-03-06T14:44:44.797Z,9.07
2019-03-06T14:47:16.355Z,9.00
2019-03-06T14:49:45.349Z,8.70
2019-03-06T14:52:14.914Z,10.17
2019-03-06T14:54:46.917Z,9.03
2019-03-06T14:57:15.894Z,8.17
2019-03-06T14:59:44.783Z,7.60
2019-03-06T15:02:14.223Z,6.97
2019-03-06T15:04:43.237Z,6.97
2019-03-06T15:07:13.347Z,7.00
2019-03-06T15:09:42.332Z,6.90
2019-03-06T15:12:12.682Z,8.13
2019-03-06T15:14:48.391Z,6.07
2019-03-06T15:17:17.785Z,7.87
2019-03-06T15:19:47.091Z,8.17
2019-03-06T15:22:16.886Z,6.23
2019-03-06T15:24:45.831Z,9.23
2019-03-06T15:27:15.818Z,6.97
2019-03-06T15:29:49.121Z,7.77
2019-03-06T15:32:19.037Z,5.00
2019-03-06T15:34:49.187Z,8.70
2019-03-06T15:37:18.849Z,8.90
2019-03-06T15:39:50.346Z,4.60
2019-03-06T15:42:20.407Z,7.03
2019-03-06T15:44:50.237Z,8.90
2019-03-06T15:47:20.127Z,8.60
2019-03-06T15:49:49.614Z,6.80
2019-03-06T15:52:19.049Z,7.60
2019-03-06T15:54:48.603Z,8.30
2019-03-06T15:57:18.267Z,7.00
2019-03-06T15:59:47.550Z,7.27
2019-03-06T16:02:18.144Z,6.93
2019-03-06T16:04:48.064Z,7.63
2019-03-06T16:07:17.855Z,9.00
2019-03-06T16:09:47.181Z,8.10
2019-03-06T16:12:17.017Z,6.50
2019-03-06T16:14:49.712Z,8.07
2019-03-06T16:17:19.010Z,8.50
2019-03-06T16:19:49.505Z,6.37
2019-03-06T16:22:19.237Z,8.00
2019-03-06T16:24:48.567Z,8.30
2019-03-06T16:27:17.647Z,9.77
2019-03-06T16:29:46.870Z,8.03
2019-03-06T16:32:19.504Z,8.17
2019-03-06T16:34:49.243Z,6.97
2019-03-06T16:37:19.429Z,8.27
2019-03-06T16:39:48.845Z,9.03
2019-03-06T16:42:17.718Z,6.47
2019-03-06T16:44:48.006Z,8.43
2019-03-06T16:47:17.309Z,10.07
2019-03-06T16:49:46.431Z,6.93
2019-03-06T16:52:15.527Z,8.27
2019-03-06T16:54:45.955Z,9.63
2019-03-06T16:57:15.116Z,9.67
2019-03-06T16:59:45.906Z,9.77
2019-03-06T17:02:15.919Z,7.27
2019-03-06T17:04:45.121Z,7.53
2019-03-06T17:07:14.165Z,6.50
2019-03-06T17:09:43.508Z,8.70
2019-03-06T17:12:13.757Z,7.13
2019-03-06T17:14:43.146Z,5.80
2019-03-06T17:17:12.224Z,7.33
2019-03-06T17:19:44.432Z,6.73
2019-03-06T17:22:13.785Z,10.20
2019-03-06T17:24:42.828Z,8.50
2019-03-06T17:27:12.061Z,7.17
2019-03-06T17:29:41.632Z,11.63
2019-03-06T17:32:11.077Z,9.23
2019-03-06T17:34:41.526Z,7.43
2019-03-06T17:37:10.650Z,6.77
2019-03-06T17:39:39.618Z,5.53
2019-03-06T17:42:08.697Z,11.43
2019-03-06T17:44:37.811Z,10.83
2019-03-06T17:47:06.859Z,10.23
2019-03-06T17:49:35.964Z,11.27
2019-03-06T17:52:04.980Z,8.17
2019-03-06T17:54:38.642Z,10.73
2019-03-06T17:57:08.027Z,9.67
2019-03-06T17:59:37.495Z,8.33
2019-03-06T18:02:06.624Z,11.83
2019-03-06T18:04:35.598Z,11.60
2019-03-06T18:07:06.194Z,8.50
2019-03-06T18:09:36.078Z,11.63
2019-03-06T18:12:05.626Z,9.30
2019-03-06T18:14:34.902Z,10.03
2019-03-06T18:17:03.992Z,8.23
2019-03-06T18:19:33.383Z,9.53
2019-03-06T18:22:05.573Z,9.00
2019-03-06T18:24:36.268Z,14.03
2019-03-06T18:29:44.634Z,10.33
2019-03-06T18:32:13.879Z,10.50
2019-03-06T18:34:43.563Z,9.43
2019-03-06T18:37:12.972Z,9.77
2019-03-06T18:39:44.561Z,10.70
2019-03-06T18:42:14.186Z,10.73
2019-03-06T18:44:45.359Z,11.83
2019-03-06T18:47:14.047Z,10.63
2019-03-06T18:49:43.076Z,11.30
2019-03-06T18:52:18.123Z,9.07
2019-03-06T18:54:49.207Z,9.90
2019-03-06T18:57:20.638Z,11.87
2019-03-06T18:59:49.923Z,13.00
2019-03-06T19:02:20.056Z,9.27
2019-03-06T19:04:49.621Z,8.27
2019-03-06T19:07:18.744Z,7.30
2019-03-06T19:09:52.053Z,7.93
2019-03-06T19:12:21.145Z,8.33
2019-03-06T19:14:55.808Z,9.33
2019-03-06T19:17:24.874Z,9.80
2019-03-06T19:20:00.553Z,11.40
2019-03-06T19:22:31.163Z,10.63
2019-03-06T19:25:00.673Z,9.27
2019-03-06T19:27:30.077Z,7.60
2019-03-06T19:30:01.147Z,8.70
2019-03-06T19:32:30.154Z,9.77
2019-03-06T19:34:59.159Z,6.40
2019-03-06T19:37:31.305Z,9.03
2019-03-06T19:40:00.594Z,12.07
2019-03-06T19:42:30.790Z,9.77
2019-03-06T19:45:03.261Z,10.50
2019-03-06T19:47:33.051Z,7.80
2019-03-06T19:50:02.195Z,8.50
2019-03-06T19:52:31.296Z,7.70
2019-03-06T19:55:04.234Z,9.73
2019-03-06T19:57:50.844Z,9.83
2019-03-06T20:00:20.900Z,8.20
2019-03-06T20:02:50.375Z,9.87
2019-03-06T20:05:19.932Z,9.83
2019-03-06T20:07:52.200Z,9.47
2019-03-06T20:10:24.447Z,8.37
2019-03-06T20:12:53.585Z,7.63
2019-03-06T20:15:22.868Z,10.73
2019-03-06T20:17:52.736Z,9.90
2019-03-06T20:20:22.213Z,8.63
2019-03-06T20:22:51.451Z,8.83
2019-03-06T20:25:22.618Z,11.20
2019-03-06T20:27:55.355Z,10.00
2019-03-06T20:30:24.963Z,8.00
2019-03-06T20:32:54.039Z,7.90
2019-03-06T20:35:24.228Z,10.80
2019-03-06T20:37:53.507Z,8.87
2019-03-06T20:40:22.817Z,10.30
2019-03-06T20:42:51.864Z,9.20
2019-03-06T20:45:21.606Z,8.53
2019-03-06T20:47:51.183Z,8.67
2019-03-06T20:50:21.621Z,10.47
2019-03-06T20:52:51.170Z,10.73
2019-03-06T20:55:20.565Z,10.73
2019-03-06T20:57:49.899Z,9.87
2019-03-06T21:00:21.311Z,10.63
2019-03-06T21:02:52.635Z,7.37
2019-03-06T21:05:24.829Z,8.30
2019-03-06T21:07:53.933Z,7.67
2019-03-06T21:10:29.093Z,9.80
2019-03-06T21:12:57.374Z,9.27
2019-03-06T21:15:27.011Z,8.30
2019-03-06T21:17:56.019Z,10.90
2019-03-06T21:20:25.322Z,9.87
2019-03-06T21:22:57.765Z,9.67
2019-03-06T21:25:30.016Z,10.30
2019-03-06T21:27:59.248Z,9.60
2019-03-06T21:30:31.514Z,10.53
2019-03-06T21:35:35.950Z,7.83
2019-03-06T21:38:05.093Z,9.33
2019-03-06T21:40:34.216Z,13.27
2019-03-06T21:43:03.718Z,10.87
2019-03-06T21:45:33.821Z,11.53
2019-03-06T21:48:03.170Z,10.63
2019-03-06T21:50:32.203Z,13.50
2019-03-06T21:53:01.238Z,10.63
2019-03-06T21:55:32.897Z,9.90
2019-03-06T21:58:02.362Z,10.07
2019-03-06T22:00:31.733Z,10.63
2019-03-06T22:03:00.894Z,10.70
2019-03-06T22:05:32.733Z,11.33
2019-03-06T22:08:02.392Z,12.73
2019-03-06T22:10:31.789Z,12.63
2019-03-06T22:13:02.001Z,12.33
2019-03-06T22:15:33.025Z,13.90
2019-03-06T22:18:01.983Z,13.10
2019-03-06T22:20:34.889Z,12.43
2019-03-06T22:23:03.973Z,11.33
2019-03-06T22:25:36.070Z,12.80
2019-03-06T22:28:05.132Z,15.33
2019-03-06T22:30:34.467Z,12.33
2019-03-06T22:33:05.415Z,12.43
2019-03-06T22:35:36.917Z,12.97
2019-03-06T22:38:06.550Z,12.37
2019-03-06T22:40:35.839Z,12.83
2019-03-06T22:43:07.572Z,11.73
2019-03-06T22:45:37.427Z,12.43
2019-03-06T22:48:06.896Z,13.93
2019-03-06T22:50:36.485Z,13.37
2019-03-06T22:53:05.948Z,13.70
2019-03-06T22:55:35.116Z,12.27
2019-03-06T22:58:10.051Z,13.77
2019-03-06T23:00:52.898Z,13.17
2019-03-06T23:03:22.502Z,12.87
2019-03-06T23:05:51.536Z,15.50
2019-03-06T23:08:21.428Z,14.63
2019-03-06T23:10:52.211Z,12.80
2019-03-06T23:13:23.501Z,12.03
2019-03-06T23:15:52.321Z,14.47
2019-03-06T23:18:21.798Z,13.77
2019-03-06T23:20:54.031Z,13.87
2019-03-06T23:23:23.461Z,15.90
2019-03-06T23:25:52.414Z,13.03
2019-03-06T23:28:23.922Z,14.27
2019-03-06T23:30:53.214Z,12.03
2019-03-06T23:33:25.646Z,14.60
2019-03-06T23:35:54.852Z,14.90
2019-03-06T23:38:24.174Z,16.33
2019-03-06T23:40:53.547Z,15.67
2019-03-06T23:43:23.204Z,14.67
2019-03-06T23:45:52.129Z,15.20
2019-03-06T23:48:21.394Z,14.90
2019-03-06T23:50:50.577Z,19.43
2019-03-06T23:53:41.330Z,17.23
2019-03-06T23:56:11.324Z,18.43
2019-03-06T23:58:43.760Z,17.57
